This is the latest recevied weather packets stored in our database for station/object K6POO-1. If no packets are shown the sender has not sent any weather packets the latest 10 day(s).
| Time | Temp. | Humidity | Pressure | Rain* | Wind** | Luminosity | Snow |
|---|---|---|---|---|---|---|---|
| 1788032894 | 20.56° C | 64% | 1015.6 hPa | 0 mm | - | 929 W/m² | - |
| 1788032593 | 20.56° C | 63% | 1015.6 hPa | 0 mm | - | 929 W/m² | - |
| 1788032289 | 20.56° C | 61% | 1015.9 hPa | 0 mm | - | 930 W/m² | - |
| 1788031985 | 21.11° C | 62% | 1015.7 hPa | 0 mm | - | 929 W/m² | - |
| 1788031680 | 20.56° C | 65% | 1015.9 hPa | 0 mm | - | 930 W/m² | - |
| 1788031379 | 21.11° C | 62% | 1015.9 hPa | 0 mm | - | 930 W/m² | - |
| 1788031075 | 21.11° C | 62% | 1015.9 hPa | 0 mm | - | 932 W/m² | - |
| 1788030774 | 20.56° C | 64% | 1015.9 hPa | 0 mm | - | 931 W/m² | - |
| 1788030473 | 21.11° C | 59% | 1016.1 hPa | 0 mm | - | 928 W/m² | - |
| 1788030168 | 20.56° C | 64% | 1016.1 hPa | 0 mm | - | 929 W/m² | - |
| 1788029875 | 20.56° C | 63% | 1016.3 hPa | 0 mm | - | 919 W/m² | - |
| 1788029558 | 20.56° C | 64% | 1016.2 hPa | 0 mm | - | 912 W/m² | - |
| 1788029257 | 21.67° C | 61% | 1016.3 hPa | 0 mm | - | 911 W/m² | - |
| 1788028952 | 21.11° C | 61% | 1016.2 hPa | 0 mm | - | 908 W/m² | - |
| 1788028652 | 20.56° C | 61% | 1016.5 hPa | 0 mm | - | 899 W/m² | - |
| 1788028346 | 20.56° C | 64% | 1016.3 hPa | 0 mm | - | 889 W/m² | - |
| 1788028042 | 20° C | 65% | 1016.4 hPa | 0 mm | - | 885 W/m² | - |
| 1788027737 | 19.44° C | 66% | 1016.3 hPa | 0 mm | - | 881 W/m² | - |
| 1788027437 | 20° C | 65% | 1016.4 hPa | 0 mm | - | 875 W/m² | - |
| 1788027132 | 20° C | 64% | 1016.4 hPa | 0 mm | - | 862 W/m² | - |
| 1788026831 | 20.56° C | 64% | 1016.3 hPa | 0 mm | - | 859 W/m² | - |
| 1788026527 | 20.56° C | 63% | 1016.3 hPa | 0 mm | - | 846 W/m² | - |
| 1788026227 | 20° C | 62% | 1016.3 hPa | 0 mm | - | 839 W/m² | - |
| 1788025927 | 20° C | 63% | 1016.1 hPa | 0 mm | - | 826 W/m² | - |
| 1788025621 | 20° C | 65% | 1016.2 hPa | 0 mm | - | 822 W/m² | - |
* Rain latest hour (hover to see other rain measurements)
** Current wind speed in m/s (hover to see current wind gust speed)